Time;durP1;ratioP1;P1;durP2;ratioP2;P2;SDS_P1;SDS_P2;PMS_P1;PMS_P2;Temp;Humidity;BMP_temperature;BMP_pressure;BME280_temperature;BME280_humidity;BME280_pressure;Samples;Min_cycle;Max_cycle;Signal;HPM_P1;HPM_P2
2022/01/22 00:00:18;;;;;;;20.60;10.57;;;;;;;;;;5024104;28;20112;-60
2022/01/22 00:02:44;;;;;;;31.88;10.75;;;;;;;;;;5030898;28;20597;-59
2022/01/22 00:05:11;;;;;;;21.17;11.27;;;;;;;;;;5030604;28;20114;-59
2022/01/22 00:07:37;;;;;;;29.58;12.45;;;;;;;;;;5018894;28;20032;-59
2022/01/22 00:10:13;;;;;;;24.88;11.48;;;;;;;;;;5024850;28;20432;-59
2022/01/22 00:15:06;;;;;;;25.33;12.52;;;;;;;;;;5030779;28;20065;-59
2022/01/22 00:17:32;;;;;;;23.98;12.25;;;;;;;;;;5029461;28;20063;-59
2022/01/22 00:19:58;;;;;;;23.98;12.80;;;;;;;;;;5030378;28;20138;-58
2022/01/22 00:22:28;;;;;;;20.38;10.77;;;;;;;;;;5028653;28;20037;-59
2022/01/22 00:24:58;;;;;;;32.92;13.23;;;;;;;;;;5025899;28;20033;-59
2022/01/22 00:27:24;;;;;;;29.45;12.73;;;;;;;;;;5025206;28;20135;-59
2022/01/22 00:29:50;;;;;;;25.60;11.90;;;;;;;;;;5024700;28;20037;-59
2022/01/22 00:32:16;;;;;;;26.50;12.43;;;;;;;;;;5029010;28;20032;-60
2022/01/22 00:34:42;;;;;;;21.98;10.93;;;;;;;;;;5024321;28;20023;-60
2022/01/22 00:37:08;;;;;;;31.05;12.18;;;;;;;;;;5026685;28;20044;-60
2022/01/22 00:39:34;;;;;;;26.02;11.27;;;;;;;;;;5023023;28;20032;-58
2022/01/22 00:42:01;;;;;;;29.10;11.88;;;;;;;;;;5025434;28;20097;-58
2022/01/22 00:44:27;;;;;;;25.30;10.75;;;;;;;;;;5029733;28;20811;-59
2022/01/22 00:46:53;;;;;;;26.42;10.90;;;;;;;;;;5021775;28;20135;-59
2022/01/22 00:49:19;;;;;;;29.15;11.50;;;;;;;;;;5026660;28;20067;-59
2022/01/22 00:51:46;;;;;;;28.02;12.18;;;;;;;;;;5028128;28;20029;-59
2022/01/22 00:54:12;;;;;;;31.70;12.60;;;;;;;;;;5027923;28;20036;-59
2022/01/22 00:56:38;;;;;;;30.75;13.32;;;;;;;;;;5026571;28;20058;-60
2022/01/22 00:59:04;;;;;;;23.17;11.95;;;;;;;;;;5028000;28;20102;-59
2022/01/22 01:01:30;;;;;;;26.55;13.43;;;;;;;;;;5027879;28;20067;-58
2022/01/22 01:04:02;;;;;;;29.15;12.85;;;;;;;;;;5027714;28;20021;-59
2022/01/22 01:06:28;;;;;;;31.58;14.13;;;;;;;;;;5027840;28;20025;-58
2022/01/22 01:08:54;;;;;;;34.70;14.07;;;;;;;;;;5027194;28;20304;-58
2022/01/22 01:11:23;;;;;;;32.80;15.15;;;;;;;;;;5028103;28;20505;-59
2022/01/22 01:13:55;;;;;;;31.10;14.95;;;;;;;;;;5026072;28;20469;-60
2022/01/22 01:16:43;;;;;;;24.75;11.05;;;;;;;;;;5029930;28;20064;-59
2022/01/22 01:33:06;;;;;;;35.85;17.65;;;;;;;;;;5025316;28;20110;-59
2022/01/22 01:35:35;;;;;;;32.30;17.92;;;;;;;;;;5024230;28;20067;-59
2022/01/22 01:38:02;;;;;;;32.50;18.65;;;;;;;;;;5027881;28;20039;-58
2022/01/22 01:40:30;;;;;;;43.00;19.20;;;;;;;;;;5026155;28;20033;-59
2022/01/22 01:43:11;;;;;;;37.35;19.48;;;;;;;;;;5027512;28;20058;-59
2022/01/22 01:45:37;;;;;;;32.50;19.08;;;;;;;;;;5021907;28;20036;-60
2022/01/22 01:48:09;;;;;;;38.47;18.67;;;;;;;;;;5025462;28;20032;-59
2022/01/22 01:50:37;;;;;;;33.72;18.77;;;;;;;;;;5027667;28;20506;-60
2022/01/22 01:53:11;;;;;;;38.33;20.80;;;;;;;;;;5028189;28;20018;-59
2022/01/22 01:58:22;;;;;;;39.35;19.15;;;;;;;;;;5027648;28;20040;-58
2022/01/22 02:00:48;;;;;;;36.67;19.13;;;;;;;;;;5026220;28;20072;-60
2022/01/22 02:03:14;;;;;;;45.28;19.77;;;;;;;;;;5028842;28;20032;-59
2022/01/22 02:05:40;;;;;;;34.72;19.70;;;;;;;;;;5030705;28;20662;-59
2022/01/22 02:08:07;;;;;;;38.78;19.50;;;;;;;;;;5030305;28;20443;-60
2022/01/22 02:10:37;;;;;;;33.75;20.13;;;;;;;;;;5030586;28;20504;-60
2022/01/22 02:24:05;;;;;;;35.30;20.77;;;;;;;;;;5032309;28;20120;-58
2022/01/22 02:26:31;;;;;;;37.35;20.08;;;;;;;;;;5030419;28;20029;-58
2022/01/22 02:28:57;;;;;;;36.45;21.13;;;;;;;;;;5028639;28;20025;-60
2022/01/22 02:31:34;;;;;;;39.90;21.98;;;;;;;;;;5030963;28;20025;-60
2022/01/22 02:36:38;;;;;;;35.70;21.50;;;;;;;;;;5029696;28;20041;-59
2022/01/22 02:41:52;;;;;;;38.67;20.92;;;;;;;;;;5021603;28;20355;-60
2022/01/22 02:44:32;;;;;;;39.47;22.30;;;;;;;;;;5029534;28;20041;-60
2022/01/22 02:46:59;;;;;;;46.15;23.95;;;;;;;;;;5029673;28;20528;-59
2022/01/22 02:49:25;;;;;;;45.83;24.02;;;;;;;;;;5026766;28;20041;-59
2022/01/22 02:51:51;;;;;;;43.05;24.20;;;;;;;;;;5030943;28;20567;-59
2022/01/22 02:54:17;;;;;;;47.53;25.08;;;;;;;;;;5030504;28;20108;-59
2022/01/22 02:56:43;;;;;;;40.38;24.83;;;;;;;;;;5032059;28;20021;-59
2022/01/22 02:59:09;;;;;;;39.95;25.42;;;;;;;;;;5027644;28;20078;-59
2022/01/22 03:01:35;;;;;;;42.60;26.02;;;;;;;;;;5030409;28;20025;-60
2022/01/22 03:04:01;;;;;;;48.00;25.75;;;;;;;;;;5028066;28;20067;-60
2022/01/22 03:06:27;;;;;;;40.35;26.08;;;;;;;;;;5028718;28;20484;-59
2022/01/22 03:08:53;;;;;;;42.42;25.80;;;;;;;;;;5030848;28;20032;-60
2022/01/22 03:11:24;;;;;;;54.15;25.65;;;;;;;;;;5030613;28;20480;-60
2022/01/22 03:16:51;;;;;;;48.63;26.35;;;;;;;;;;5025620;28;20042;-59
2022/01/22 03:19:54;;;;;;;43.00;26.50;;;;;;;;;;5027289;28;20021;-59
2022/01/22 03:22:20;;;;;;;39.67;25.30;;;;;;;;;;5028826;28;20067;-60
2022/01/22 03:27:33;;;;;;;39.47;24.95;;;;;;;;;;5029633;28;20091;-58
2022/01/22 03:29:59;;;;;;;45.10;24.60;;;;;;;;;;5030309;28;20482;-59
2022/01/22 03:32:29;;;;;;;45.50;23.98;;;;;;;;;;5030318;28;20041;-59
2022/01/22 03:35:11;;;;;;;45.70;25.23;;;;;;;;;;5030964;28;20436;-59
2022/01/22 03:37:38;;;;;;;47.60;26.10;;;;;;;;;;5031460;28;20468;-60
2022/01/22 03:40:05;;;;;;;49.88;25.38;;;;;;;;;;5029996;28;20457;-59
2022/01/22 03:42:31;;;;;;;54.70;26.08;;;;;;;;;;5027820;28;20148;-60
2022/01/22 03:44:57;;;;;;;46.67;26.48;;;;;;;;;;5031662;28;20657;-60
2022/01/22 03:47:23;;;;;;;37.22;24.92;;;;;;;;;;5032020;28;20032;-59
2022/01/22 03:49:49;;;;;;;43.80;26.92;;;;;;;;;;5029201;28;20450;-59
2022/01/22 03:52:17;;;;;;;48.95;26.58;;;;;;;;;;5030632;28;20033;-59
2022/01/22 03:54:43;;;;;;;52.28;27.70;;;;;;;;;;5029888;28;20677;-59
2022/01/22 03:57:09;;;;;;;45.05;26.25;;;;;;;;;;5032492;28;20086;-59
2022/01/22 03:59:35;;;;;;;44.50;26.85;;;;;;;;;;5029334;28;20036;-59
2022/01/22 04:04:43;;;;;;;48.97;27.25;;;;;;;;;;5026067;28;20027;-59
2022/01/22 04:09:40;;;;;;;47.65;28.58;;;;;;;;;;5028041;28;20127;-58
2022/01/22 04:12:07;;;;;;;51.35;28.65;;;;;;;;;;5029369;28;20025;-59
2022/01/22 04:14:35;;;;;;;51.25;29.13;;;;;;;;;;5027299;28;20966;-59
2022/01/22 04:17:20;;;;;;;55.63;28.83;;;;;;;;;;5029009;28;20032;-58
2022/01/22 04:25:28;;;;;;;54.20;31.25;;;;;;;;;;5018183;28;21276;-59
2022/01/22 04:27:54;;;;;;;47.65;29.40;;;;;;;;;;5026310;28;20044;-59
2022/01/22 04:30:21;;;;;;;47.38;29.00;;;;;;;;;;5030622;28;20028;-59
2022/01/22 04:32:47;;;;;;;49.10;29.20;;;;;;;;;;5027759;28;20365;-59
2022/01/22 04:35:13;;;;;;;47.10;30.42;;;;;;;;;;5032282;28;20485;-59
2022/01/22 04:37:39;;;;;;;45.63;31.73;;;;;;;;;;5028600;28;20036;-59
2022/01/22 04:40:06;;;;;;;56.03;31.58;;;;;;;;;;5031741;28;20511;-59
2022/01/22 04:42:35;;;;;;;53.22;31.45;;;;;;;;;;5031210;28;20009;-59
2022/01/22 04:45:08;;;;;;;50.22;31.10;;;;;;;;;;5029992;28;20485;-59
2022/01/22 04:47:46;;;;;;;45.08;29.88;;;;;;;;;;5025965;28;20044;-60
2022/01/22 04:55:38;;;;;;;49.40;30.33;;;;;;;;;;5029097;28;20044;-59
2022/01/22 04:58:05;;;;;;;50.97;30.73;;;;;;;;;;5028168;28;20354;-59
2022/01/22 05:00:32;;;;;;;56.28;32.25;;;;;;;;;;5029043;28;20028;-58
2022/01/22 05:02:58;;;;;;;58.55;30.65;;;;;;;;;;5027169;28;20104;-59
2022/01/22 05:05:25;;;;;;;54.78;33.65;;;;;;;;;;5029103;28;20021;-59
2022/01/22 05:07:51;;;;;;;61.08;35.22;;;;;;;;;;5026177;28;20515;-60
2022/01/22 05:10:17;;;;;;;60.92;34.47;;;;;;;;;;5025289;28;20536;-59
2022/01/22 05:12:43;;;;;;;54.78;34.10;;;;;;;;;;5025538;28;20624;-59
2022/01/22 05:15:09;;;;;;;59.90;33.22;;;;;;;;;;5026132;28;20042;-58
2022/01/22 05:17:39;;;;;;;54.28;33.63;;;;;;;;;;5027521;28;20041;-59
2022/01/22 05:20:11;;;;;;;64.60;34.35;;;;;;;;;;5025978;28;20289;-60
2022/01/22 05:25:07;;;;;;;56.70;33.65;;;;;;;;;;5024295;28;20153;-59
2022/01/22 05:27:56;;;;;;;52.67;33.25;;;;;;;;;;5024283;28;20177;-60
2022/01/22 05:33:13;;;;;;;57.22;33.10;;;;;;;;;;5026138;28;20349;-60
2022/01/22 05:38:24;;;;;;;61.17;33.92;;;;;;;;;;5030413;28;20056;-60
2022/01/22 05:40:51;;;;;;;64.75;35.17;;;;;;;;;;5031196;28;20025;-58
2022/01/22 05:43:17;;;;;;;55.15;33.67;;;;;;;;;;5031416;28;20032;-59
2022/01/22 05:45:43;;;;;;;60.53;34.67;;;;;;;;;;5031375;28;20037;-60
2022/01/22 05:48:09;;;;;;;56.20;33.13;;;;;;;;;;5030904;28;20033;-58
2022/01/22 05:50:50;;;;;;;58.85;33.78;;;;;;;;;;5032688;28;20132;-59
2022/01/22 06:01:18;;;;;;;60.45;34.17;;;;;;;;;;5031936;28;20497;-60
2022/01/22 06:03:44;;;;;;;61.70;32.97;;;;;;;;;;5029772;28;20119;-59
2022/01/22 06:06:10;;;;;;;56.67;32.67;;;;;;;;;;5025484;28;20112;-59
2022/01/22 06:08:51;;;;;;;59.65;32.38;;;;;;;;;;5026652;28;20026;-59
2022/01/22 06:11:23;;;;;;;57.45;33.33;;;;;;;;;;5029647;28;20119;-60
2022/01/22 06:13:49;;;;;;;62.38;34.00;;;;;;;;;;5030539;28;20025;-60
2022/01/22 06:16:16;;;;;;;60.78;34.97;;;;;;;;;;5026274;28;20037;-59
2022/01/22 06:18:43;;;;;;;69.05;36.00;;;;;;;;;;5022461;28;20033;-58
2022/01/22 06:21:09;;;;;;;62.22;34.58;;;;;;;;;;5029034;28;20038;-59
2022/01/22 06:23:35;;;;;;;65.72;35.95;;;;;;;;;;5032160;28;20108;-60
2022/01/22 06:26:01;;;;;;;62.83;32.85;;;;;;;;;;5031445;28;20067;-59
2022/01/22 06:28:28;;;;;;;64.20;34.50;;;;;;;;;;5029479;28;20034;-59
2022/01/22 06:30:54;;;;;;;63.72;33.78;;;;;;;;;;5029668;28;20504;-60
2022/01/22 06:33:20;;;;;;;79.07;34.90;;;;;;;;;;5032503;28;20029;-59
2022/01/22 06:35:46;;;;;;;70.53;35.85;;;;;;;;;;5031121;28;20040;-59
2022/01/22 06:38:13;;;;;;;66.63;35.53;;;;;;;;;;5030628;28;20033;-60
2022/01/22 06:43:05;;;;;;;58.83;35.58;;;;;;;;;;5032813;28;20033;-61
2022/01/22 06:45:32;;;;;;;59.00;35.92;;;;;;;;;;5032839;28;20029;-59
2022/01/22 06:47:58;;;;;;;59.05;34.85;;;;;;;;;;5031831;28;20115;-60
2022/01/22 06:50:24;;;;;;;62.42;34.55;;;;;;;;;;5031038;28;20069;-60
2022/01/22 06:52:55;;;;;;;65.40;36.95;;;;;;;;;;5029948;28;20029;-59
2022/01/22 06:55:30;;;;;;;55.35;34.08;;;;;;;;;;5030457;28;20061;-60
2022/01/22 06:57:56;;;;;;;66.13;35.22;;;;;;;;;;5028205;28;20037;-60
2022/01/22 07:00:22;;;;;;;65.00;35.22;;;;;;;;;;5025355;28;20029;-59
2022/01/22 07:02:48;;;;;;;62.90;34.88;;;;;;;;;;5029363;28;20025;-60
2022/01/22 07:05:14;;;;;;;69.95;36.05;;;;;;;;;;5029801;28;20037;-59
2022/01/22 07:07:40;;;;;;;61.97;34.97;;;;;;;;;;5028867;28;20037;-59
2022/01/22 07:10:06;;;;;;;70.40;35.70;;;;;;;;;;5030476;28;20170;-59
2022/01/22 07:12:32;;;;;;;64.07;35.47;;;;;;;;;;5028153;28;20040;-59
2022/01/22 07:14:58;;;;;;;63.63;35.88;;;;;;;;;;5027956;28;20037;-59
2022/01/22 07:17:24;;;;;;;64.18;34.50;;;;;;;;;;5030308;28;20684;-60
2022/01/22 07:19:52;;;;;;;62.58;35.75;;;;;;;;;;5029218;28;20437;-58
2022/01/22 07:22:50;;;;;;;67.82;35.22;;;;;;;;;;5030002;28;20465;-60
2022/01/22 07:25:16;;;;;;;67.18;35.45;;;;;;;;;;5030643;28;20257;-58
2022/01/22 07:27:42;;;;;;;64.97;36.33;;;;;;;;;;5028266;28;20087;-58
2022/01/22 07:30:08;;;;;;;66.53;35.83;;;;;;;;;;5026431;28;20423;-58
2022/01/22 07:32:37;;;;;;;74.60;35.53;;;;;;;;;;5030200;28;20615;-59
2022/01/22 07:35:04;;;;;;;67.50;36.67;;;;;;;;;;5030809;28;20095;-59
2022/01/22 07:37:30;;;;;;;68.60;34.63;;;;;;;;;;5029470;28;20067;-60
2022/01/22 07:39:56;;;;;;;69.13;35.35;;;;;;;;;;5028108;28;20029;-59
2022/01/22 07:42:22;;;;;;;71.75;37.60;;;;;;;;;;5030122;28;20041;-59
2022/01/22 07:44:48;;;;;;;65.90;36.97;;;;;;;;;;5030918;28;20091;-60
2022/01/22 07:47:14;;;;;;;65.03;36.15;;;;;;;;;;5028191;28;20056;-59
2022/01/22 07:49:40;;;;;;;72.20;37.08;;;;;;;;;;5022525;28;20033;-60
2022/01/22 07:52:07;;;;;;;69.68;37.83;;;;;;;;;;5028534;28;20018;-59
2022/01/22 07:54:33;;;;;;;69.65;37.22;;;;;;;;;;5026600;28;20543;-59
2022/01/22 07:57:02;;;;;;;67.57;37.95;;;;;;;;;;5027549;28;20097;-60
2022/01/22 07:59:28;;;;;;;65.47;36.35;;;;;;;;;;5029400;28;20047;-59
2022/01/22 08:01:54;;;;;;;68.45;38.15;;;;;;;;;;5020276;28;20199;-60
2022/01/22 08:04:24;;;;;;;70.63;37.25;;;;;;;;;;5015971;28;20600;-58
2022/01/22 08:06:50;;;;;;;77.53;37.90;;;;;;;;;;5027428;28;20082;-59
2022/01/22 08:09:16;;;;;;;68.88;36.72;;;;;;;;;;5028742;28;20062;-59
2022/01/22 08:11:42;;;;;;;71.97;38.28;;;;;;;;;;5027178;28;20615;-59
2022/01/22 08:14:10;;;;;;;72.55;37.72;;;;;;;;;;5028084;28;20135;-59
2022/01/22 08:16:36;;;;;;;79.60;40.67;;;;;;;;;;5026299;28;20079;-59
2022/01/22 08:19:03;;;;;;;72.18;39.33;;;;;;;;;;5029033;28;20021;-61
2022/01/22 08:21:29;;;;;;;67.15;38.67;;;;;;;;;;5031489;28;20026;-60
2022/01/22 08:23:55;;;;;;;73.28;40.40;;;;;;;;;;5032825;28;20749;-60
2022/01/22 08:26:26;;;;;;;82.32;40.05;;;;;;;;;;5027310;28;20535;-60
2022/01/22 08:28:58;;;;;;;72.05;38.92;;;;;;;;;;5028399;28;20087;-60
2022/01/22 08:36:44;;;;;;;80.10;38.15;;;;;;;;;;5028476;28;20928;-60
2022/01/22 08:39:10;;;;;;;85.28;40.88;;;;;;;;;;5027894;28;20031;-61
2022/01/22 08:41:36;;;;;;;80.78;40.15;;;;;;;;;;5024735;28;20033;-61
2022/01/22 08:44:03;;;;;;;81.43;40.03;;;;;;;;;;5028813;28;20029;-60
2022/01/22 08:46:29;;;;;;;85.63;41.33;;;;;;;;;;5027958;28;20044;-61
2022/01/22 08:48:56;;;;;;;81.20;42.35;;;;;;;;;;5022913;28;20576;-60
2022/01/22 08:51:22;;;;;;;76.38;40.33;;;;;;;;;;5017541;28;20161;-61
2022/01/22 08:53:48;;;;;;;87.30;42.15;;;;;;;;;;5027194;28;20473;-61
2022/01/22 08:56:14;;;;;;;77.90;41.63;;;;;;;;;;5017789;28;20037;-61
2022/01/22 08:58:40;;;;;;;82.80;41.10;;;;;;;;;;5023991;28;20039;-60
2022/01/22 09:01:06;;;;;;;76.03;42.72;;;;;;;;;;5027870;28;20229;-60
2022/01/22 09:03:33;;;;;;;82.30;41.67;;;;;;;;;;5028753;28;20374;-61
2022/01/22 09:06:00;;;;;;;82.78;43.55;;;;;;;;;;5027761;28;20036;-60
2022/01/22 09:08:26;;;;;;;84.47;45.22;;;;;;;;;;5026486;28;20110;-60
2022/01/22 09:10:52;;;;;;;84.63;44.58;;;;;;;;;;5027236;28;20143;-60
2022/01/22 09:13:19;;;;;;;82.63;44.35;;;;;;;;;;5027022;28;20041;-60
2022/01/22 09:15:45;;;;;;;89.85;45.88;;;;;;;;;;5025715;28;20063;-60
2022/01/22 09:18:12;;;;;;;90.88;46.92;;;;;;;;;;5028829;28;20068;-60
2022/01/22 09:23:05;;;;;;;86.85;45.72;;;;;;;;;;5028346;28;20037;-60
2022/01/22 09:25:30;;;;;;;89.78;47.13;;;;;;;;;;5026807;28;20491;-61
2022/01/22 09:27:57;;;;;;;88.63;47.15;;;;;;;;;;5026066;28;20108;-60
2022/01/22 09:30:23;;;;;;;84.55;43.97;;;;;;;;;;5027474;28;20095;-60
2022/01/22 09:32:49;;;;;;;86.47;45.15;;;;;;;;;;5023411;28;20033;-60
2022/01/22 09:35:15;;;;;;;85.40;43.88;;;;;;;;;;5027300;28;20099;-60
2022/01/22 09:37:42;;;;;;;86.28;46.00;;;;;;;;;;5025628;28;20432;-61
2022/01/22 09:40:08;;;;;;;89.95;47.38;;;;;;;;;;5029699;28;20021;-61
2022/01/22 09:42:34;;;;;;;88.07;46.78;;;;;;;;;;5028553;28;20704;-60
2022/01/22 09:45:00;;;;;;;93.38;47.40;;;;;;;;;;5026203;28;20044;-61
2022/01/22 09:47:26;;;;;;;87.47;46.03;;;;;;;;;;5025810;28;20061;-61
2022/01/22 09:49:52;;;;;;;87.10;45.67;;;;;;;;;;5025539;28;20167;-60
2022/01/22 09:52:19;;;;;;;85.72;43.95;;;;;;;;;;5027081;28;20659;-60
2022/01/22 09:54:45;;;;;;;85.93;44.72;;;;;;;;;;5027128;28;20519;-61
2022/01/22 09:57:12;;;;;;;77.80;43.00;;;;;;;;;;5023306;28;20112;-60
2022/01/22 09:59:38;;;;;;;86.88;42.42;;;;;;;;;;5025828;28;20021;-60
2022/01/22 10:02:09;;;;;;;76.43;38.47;;;;;;;;;;5026737;28;20029;-60
2022/01/22 10:04:36;;;;;;;74.85;39.05;;;;;;;;;;5026912;28;20036;-60
2022/01/22 10:07:03;;;;;;;81.22;40.95;;;;;;;;;;5026823;28;20049;-60
2022/01/22 10:09:36;;;;;;;81.38;38.92;;;;;;;;;;5025946;28;20162;-61
2022/01/22 10:12:20;;;;;;;68.57;36.17;;;;;;;;;;5023908;28;20368;-60
2022/01/22 10:15:03;;;;;;;74.90;39.08;;;;;;;;;;5022851;28;20045;-60
2022/01/22 10:17:46;;;;;;;68.25;33.70;;;;;;;;;;5027967;28;20040;-61
2022/01/22 10:20:24;;;;;;;67.75;33.30;;;;;;;;;;5027658;28;20442;-60
2022/01/22 10:23:01;;;;;;;60.50;31.55;;;;;;;;;;5029675;28;20442;-61
2022/01/22 10:25:32;;;;;;;58.58;29.85;;;;;;;;;;5033209;28;20049;-60
2022/01/22 10:27:59;;;;;;;60.78;30.02;;;;;;;;;;5029763;28;20968;-60
2022/01/22 10:30:34;;;;;;;52.22;28.23;;;;;;;;;;5026008;28;20033;-60
2022/01/22 10:33:12;;;;;;;54.72;27.98;;;;;;;;;;5027305;28;20049;-61
2022/01/22 10:35:38;;;;;;;56.78;28.73;;;;;;;;;;5030090;28;20095;-61
2022/01/22 10:38:04;;;;;;;57.35;26.85;;;;;;;;;;5031792;28;20142;-61
2022/01/22 10:40:31;;;;;;;46.70;25.65;;;;;;;;;;5028539;28;20029;-60
2022/01/22 10:43:11;;;;;;;47.50;26.35;;;;;;;;;;5034218;28;20041;-61
2022/01/22 10:45:40;;;;;;;46.88;25.83;;;;;;;;;;5030205;28;20024;-61
2022/01/22 10:48:16;;;;;;;46.42;27.13;;;;;;;;;;5029230;28;20104;-61
2022/01/22 10:50:43;;;;;;;55.38;29.20;;;;;;;;;;5026384;28;20567;-60
2022/01/22 10:53:09;;;;;;;59.78;30.00;;;;;;;;;;5029319;28;20079;-60
2022/01/22 10:55:55;;;;;;;61.60;30.80;;;;;;;;;;5030857;28;20029;-61
2022/01/22 10:58:21;;;;;;;59.45;29.73;;;;;;;;;;5028222;28;20037;-61
2022/01/22 11:00:58;;;;;;;65.13;34.03;;;;;;;;;;5030128;28;20123;-61
2022/01/22 11:03:26;;;;;;;61.90;33.55;;;;;;;;;;5028085;28;20025;-60
2022/01/22 11:05:52;;;;;;;64.32;33.38;;;;;;;;;;5029613;28;20372;-61
2022/01/22 11:08:18;;;;;;;68.95;37.78;;;;;;;;;;5030417;28;20086;-60
2022/01/22 11:10:45;;;;;;;97.57;48.72;;;;;;;;;;5029672;28;20025;-61
2022/01/22 11:13:11;;;;;;;68.97;37.35;;;;;;;;;;5029384;28;20535;-60
2022/01/22 11:15:39;;;;;;;71.88;38.42;;;;;;;;;;5030520;28;20490;-60
2022/01/22 11:18:06;;;;;;;66.15;35.28;;;;;;;;;;5027782;28;20041;-61
2022/01/22 11:20:32;;;;;;;72.28;36.42;;;;;;;;;;5029596;28;20028;-60
2022/01/22 11:22:59;;;;;;;70.00;40.88;;;;;;;;;;5031221;28;20025;-61
2022/01/22 11:25:25;;;;;;;79.28;39.53;;;;;;;;;;5028100;28;20136;-60
2022/01/22 11:27:52;;;;;;;73.43;37.20;;;;;;;;;;5026466;28;20048;-60
2022/01/22 11:30:18;;;;;;;72.25;35.22;;;;;;;;;;5031445;28;20037;-61
2022/01/22 11:32:47;;;;;;;66.20;34.25;;;;;;;;;;5024754;28;20499;-61
2022/01/22 11:35:14;;;;;;;68.82;35.28;;;;;;;;;;5027792;28;20200;-61
2022/01/22 11:37:43;;;;;;;64.80;32.83;;;;;;;;;;5025649;28;20025;-60
2022/01/22 11:40:10;;;;;;;60.92;32.13;;;;;;;;;;5031905;28;20029;-61
2022/01/22 11:43:06;;;;;;;66.38;34.63;;;;;;;;;;5026855;28;20030;-60
2022/01/22 11:45:39;;;;;;;58.53;30.75;;;;;;;;;;5027821;28;20050;-62
2022/01/22 11:48:18;;;;;;;50.63;26.85;;;;;;;;;;5027991;28;20499;-61
2022/01/22 11:50:46;;;;;;;49.80;27.63;;;;;;;;;;5029300;28;20119;-60
2022/01/22 11:53:37;;;;;;;46.75;27.00;;;;;;;;;;5027611;28;20030;-61
2022/01/22 11:56:12;;;;;;;51.20;26.05;;;;;;;;;;5031043;28;20089;-60
2022/01/22 11:59:15;;;;;;;44.40;25.98;;;;;;;;;;5026832;28;20137;-61
2022/01/22 12:01:54;;;;;;;50.17;25.73;;;;;;;;;;5029598;28;20135;-60
2022/01/22 12:04:32;;;;;;;48.72;27.10;;;;;;;;;;5028545;28;20590;-61
2022/01/22 12:07:01;;;;;;;50.63;24.23;;;;;;;;;;5029526;28;20694;-60
2022/01/22 12:09:30;;;;;;;39.25;23.52;;;;;;;;;;5026582;28;20028;-61
2022/01/22 12:15:02;;;;;;;46.75;26.05;;;;;;;;;;5026492;28;20402;-60
2022/01/22 12:17:48;;;;;;;45.85;29.17;;;;;;;;;;5029350;28;20620;-62
2022/01/22 12:23:04;;;;;;;48.30;27.17;;;;;;;;;;5029136;28;20575;-61
2022/01/22 12:25:30;;;;;;;49.53;26.40;;;;;;;;;;5029249;28;20034;-61
2022/01/22 12:27:57;;;;;;;49.60;26.70;;;;;;;;;;5027751;28;20044;-61
2022/01/22 12:30:32;;;;;;;48.95;27.10;;;;;;;;;;5027770;28;20083;-61
2022/01/22 12:33:00;;;;;;;44.53;25.73;;;;;;;;;;5025404;28;20029;-61
2022/01/22 12:35:42;;;;;;;53.17;28.17;;;;;;;;;;5023885;28;20627;-61
2022/01/22 12:38:23;;;;;;;52.00;27.05;;;;;;;;;;5026713;28;20364;-61
2022/01/22 12:40:56;;;;;;;48.40;26.60;;;;;;;;;;5026087;28;20021;-60
2022/01/22 12:43:35;;;;;;;56.75;28.70;;;;;;;;;;5029444;28;20538;-61
2022/01/22 12:46:02;;;;;;;47.58;26.83;;;;;;;;;;5026496;28;20390;-60
2022/01/22 12:48:30;;;;;;;51.80;27.05;;;;;;;;;;5029557;28;20036;-60
2022/01/22 12:51:03;;;;;;;49.03;28.05;;;;;;;;;;5028926;28;20060;-60
2022/01/22 12:53:29;;;;;;;85.93;48.20;;;;;;;;;;5029809;28;20194;-60
2022/01/22 12:58:22;;;;;;;49.30;27.73;;;;;;;;;;5028355;28;20099;-60
2022/01/22 13:00:51;;;;;;;57.60;31.27;;;;;;;;;;5026608;28;20021;-60
2022/01/22 13:03:31;;;;;;;53.22;29.67;;;;;;;;;;5025214;28;20072;-60
2022/01/22 13:05:57;;;;;;;46.85;26.90;;;;;;;;;;5028223;28;20026;-60
2022/01/22 13:08:27;;;;;;;51.08;28.73;;;;;;;;;;5028614;28;20047;-60
2022/01/22 13:10:55;;;;;;;53.67;28.58;;;;;;;;;;5028151;28;20038;-60
2022/01/22 13:13:21;;;;;;;50.03;28.02;;;;;;;;;;5024281;28;20086;-60
2022/01/22 13:15:47;;;;;;;53.05;27.65;;;;;;;;;;5025610;28;20115;-60
2022/01/22 13:18:13;;;;;;;48.85;27.73;;;;;;;;;;5026916;28;20026;-60
2022/01/22 13:20:42;;;;;;;49.35;30.10;;;;;;;;;;5023046;28;20479;-60
2022/01/22 13:23:13;;;;;;;49.15;28.73;;;;;;;;;;5023443;28;20478;-60
2022/01/22 13:25:39;;;;;;;52.17;29.58;;;;;;;;;;5025629;28;20039;-60
2022/01/22 13:28:10;;;;;;;53.33;30.90;;;;;;;;;;5023658;28;20026;-60
2022/01/22 13:30:42;;;;;;;57.45;30.42;;;;;;;;;;5025275;28;20080;-60
2022/01/22 13:49:41;;;;;;;52.35;30.05;;;;;;;;;;5024256;28;20082;-60
2022/01/22 13:52:08;;;;;;;49.38;29.92;;;;;;;;;;5025124;28;20404;-60
2022/01/22 13:54:37;;;;;;;48.58;28.92;;;;;;;;;;5028698;28;20044;-60
2022/01/22 13:57:05;;;;;;;48.78;28.98;;;;;;;;;;5026876;28;20511;-61
2022/01/22 13:59:34;;;;;;;46.25;29.33;;;;;;;;;;5031274;28;20060;-60
2022/01/22 14:04:50;;;;;;;59.47;34.22;;;;;;;;;;5029375;28;20526;-60
2022/01/22 14:07:26;;;;;;;59.00;35.75;;;;;;;;;;5028114;28;20045;-61
2022/01/22 14:09:54;;;;;;;58.05;34.50;;;;;;;;;;5027456;28;20485;-60
2022/01/22 14:12:20;;;;;;;45.53;25.90;;;;;;;;;;5027884;28;20750;-60
2022/01/22 14:14:55;;;;;;;50.55;28.60;;;;;;;;;;5028951;28;20061;-61
2022/01/22 14:17:24;;;;;;;40.90;23.58;;;;;;;;;;5028634;28;20151;-60
2022/01/22 14:20:04;;;;;;;42.38;22.30;;;;;;;;;;5027623;28;20143;-60
2022/01/22 14:22:50;;;;;;;31.88;21.70;;;;;;;;;;5030907;28;20021;-60
2022/01/22 14:25:17;;;;;;;38.00;22.73;;;;;;;;;;5030434;28;20029;-60
2022/01/22 14:27:42;;;;;;;28.90;20.90;;;;;;;;;;5027421;28;20037;-60
2022/01/22 14:30:09;;;;;;;39.03;23.95;;;;;;;;;;5030840;28;20471;-61
2022/01/22 14:32:35;;;;;;;45.00;23.40;;;;;;;;;;5030288;28;20040;-60
2022/01/22 14:35:02;;;;;;;35.75;21.30;;;;;;;;;;5030979;28;20029;-61
2022/01/22 14:37:31;;;;;;;31.90;18.58;;;;;;;;;;5028556;28;20040;-61
2022/01/22 14:45:29;;;;;;;23.35;15.05;;;;;;;;;;5026202;28;20127;-60
2022/01/22 14:47:57;;;;;;;31.45;19.98;;;;;;;;;;5029820;28;20037;-61
2022/01/22 14:50:23;;;;;;;28.08;17.80;;;;;;;;;;5028553;28;20497;-60
2022/01/22 14:52:53;;;;;;;32.17;18.40;;;;;;;;;;5026111;28;20538;-61
2022/01/22 14:55:19;;;;;;;22.17;15.05;;;;;;;;;;5027811;28;20185;-60
2022/01/22 14:57:45;;;;;;;20.75;12.93;;;;;;;;;;5025093;28;20029;-62
2022/01/22 15:00:14;;;;;;;21.05;12.55;;;;;;;;;;5029670;28;20396;-61
2022/01/22 15:02:40;;;;;;;23.33;12.88;;;;;;;;;;5028620;28;20504;-61
2022/01/22 15:05:08;;;;;;;19.88;11.82;;;;;;;;;;5031550;28;20025;-60
2022/01/22 15:07:34;;;;;;;18.15;12.25;;;;;;;;;;5028389;28;20025;-61
2022/01/22 15:10:00;;;;;;;19.10;12.68;;;;;;;;;;5029643;28;20033;-60
2022/01/22 15:12:26;;;;;;;22.48;13.30;;;;;;;;;;5027247;28;20037;-61
2022/01/22 15:14:53;;;;;;;25.25;13.68;;;;;;;;;;5027130;28;20029;-61
2022/01/22 15:19:45;;;;;;;22.60;15.00;;;;;;;;;;5029648;28;20044;-61
2022/01/22 15:22:13;;;;;;;26.83;15.35;;;;;;;;;;5030029;28;20030;-61
2022/01/22 15:24:40;;;;;;;30.55;16.08;;;;;;;;;;5029900;28;20105;-61
2022/01/22 15:27:07;;;;;;;28.02;15.38;;;;;;;;;;5027455;28;20103;-59
2022/01/22 15:29:41;;;;;;;25.05;15.68;;;;;;;;;;5031271;28;20432;-60
2022/01/22 15:32:18;;;;;;;30.63;17.65;;;;;;;;;;5029460;28;20033;-61
2022/01/22 15:34:57;;;;;;;26.90;17.25;;;;;;;;;;5030409;28;20088;-61
2022/01/22 15:37:23;;;;;;;23.90;17.02;;;;;;;;;;5028659;28;20110;-60
2022/01/22 15:39:50;;;;;;;25.63;17.35;;;;;;;;;;5025172;28;20108;-59
2022/01/22 15:42:16;;;;;;;29.10;19.00;;;;;;;;;;5028197;28;20459;-60
2022/01/22 15:44:42;;;;;;;34.25;19.77;;;;;;;;;;5028146;28;20053;-60
2022/01/22 15:47:08;;;;;;;31.38;20.15;;;;;;;;;;5030875;28;20400;-59
2022/01/22 15:49:34;;;;;;;31.38;21.35;;;;;;;;;;5029284;28;20430;-60
2022/01/22 15:52:01;;;;;;;34.03;20.50;;;;;;;;;;5030569;28;20033;-59
2022/01/22 15:54:27;;;;;;;30.77;19.98;;;;;;;;;;5032474;28;20119;-59
2022/01/22 15:56:54;;;;;;;35.03;21.45;;;;;;;;;;5027421;28;20038;-60
2022/01/22 15:59:21;;;;;;;34.60;22.70;;;;;;;;;;5030111;28;20021;-59
2022/01/22 16:01:48;;;;;;;38.55;23.75;;;;;;;;;;5027751;28;20646;-60
2022/01/22 16:04:15;;;;;;;38.97;25.05;;;;;;;;;;5029283;28;20024;-60
2022/01/22 16:09:14;;;;;;;48.33;26.70;;;;;;;;;;5027614;28;20167;-60
2022/01/22 16:11:41;;;;;;;41.35;26.08;;;;;;;;;;5026415;28;20032;-59
2022/01/22 16:14:07;;;;;;;47.47;26.13;;;;;;;;;;5026678;28;20662;-59
2022/01/22 16:16:34;;;;;;;49.67;29.42;;;;;;;;;;5024548;28;20086;-61
2022/01/22 16:19:01;;;;;;;53.42;29.60;;;;;;;;;;5024044;28;20927;-59
2022/01/22 16:21:27;;;;;;;51.38;31.85;;;;;;;;;;5023373;28;20180;-59
2022/01/22 16:23:52;;;;;;;50.97;33.03;;;;;;;;;;5026040;28;20600;-59
2022/01/22 16:26:18;;;;;;;52.15;33.72;;;;;;;;;;5028628;28;20033;-60